sensor_id;sensor_type;location;lat;lon;timestamp;P1;P2;P0
76330;PMS7003;65148;51.912;15.570;2023-02-23T00:08:48;21;18;12
76330;PMS7003;65148;51.912;15.570;2023-02-23T00:39:01;25;23;15
76330;PMS7003;65148;51.912;15.570;2023-02-23T00:54:44;15;12;9
76330;PMS7003;65148;51.912;15.570;2023-02-23T01:09:45;32;23;16
76330;PMS7003;65148;51.912;15.570;2023-02-23T01:24:47;32;28;17
76330;PMS7003;65148;51.912;15.570;2023-02-23T01:39:48;26;21;14
76330;PMS7003;65148;51.912;15.570;2023-02-23T01:54:50;34;26;17
76330;PMS7003;65148;51.912;15.570;2023-02-23T02:09:56;25;22;13
76330;PMS7003;65148;51.912;15.570;2023-02-23T02:55:54;28;23;16
76330;PMS7003;65148;51.912;15.570;2023-02-23T03:11:01;12;8;1
76330;PMS7003;65148;51.912;15.570;2023-02-23T03:42:09;31;28;17
76330;PMS7003;65148;51.912;15.570;2023-02-23T03:57:27;32;30;20
76330;PMS7003;65148;51.912;15.570;2023-02-23T04:12:49;29;24;16
76330;PMS7003;65148;51.912;15.570;2023-02-23T04:28:35;28;21;14
76330;PMS7003;65148;51.912;15.570;2023-02-23T04:43:36;30;25;18
76330;PMS7003;65148;51.912;15.570;2023-02-23T04:58:37;32;28;17
76330;PMS7003;65148;51.912;15.570;2023-02-23T05:13:38;38;29;20
76330;PMS7003;65148;51.912;15.570;2023-02-23T05:28:40;35;30;20
76330;PMS7003;65148;51.912;15.570;2023-02-23T05:43:42;41;35;20
76330;PMS7003;65148;51.912;15.570;2023-02-23T05:58:43;31;28;17
76330;PMS7003;65148;51.912;15.570;2023-02-23T06:13:44;39;35;19
76330;PMS7003;65148;51.912;15.570;2023-02-23T06:28:45;35;28;18
76330;PMS7003;65148;51.912;15.570;2023-02-23T06:43:46;39;32;20
76330;PMS7003;65148;51.912;15.570;2023-02-23T06:59:15;44;37;25
76330;PMS7003;65148;51.912;15.570;2023-02-23T07:14:15;36;34;20
76330;PMS7003;65148;51.912;15.570;2023-02-23T07:29:16;44;37;25
76330;PMS7003;65148;51.912;15.570;2023-02-23T07:44:19;48;39;24
76330;PMS7003;65148;51.912;15.570;2023-02-23T07:59:20;40;36;21
76330;PMS7003;65148;51.912;15.570;2023-02-23T08:14:22;54;38;24
76330;PMS7003;65148;51.912;15.570;2023-02-23T08:29:23;64;50;30
76330;PMS7003;65148;51.912;15.570;2023-02-23T08:44:24;66;49;30
76330;PMS7003;65148;51.912;15.570;2023-02-23T08:59:26;89;68;43
76330;PMS7003;65148;51.912;15.570;2023-02-23T09:14:27;60;48;31
76330;PMS7003;65148;51.912;15.570;2023-02-23T09:29:52;67;54;35
76330;PMS7003;65148;51.912;15.570;2023-02-23T09:45:00;57;47;32
76330;PMS7003;65148;51.912;15.570;2023-02-23T10:00:13;53;40;27
76330;PMS7003;65148;51.912;15.570;2023-02-23T10:31:25;53;42;27
76330;PMS7003;65148;51.912;15.570;2023-02-23T10:46:21;38;34;20
76330;PMS7003;65148;51.912;15.570;2023-02-23T11:01:42;50;40;26
76330;PMS7003;65148;51.912;15.570;2023-02-23T11:32:27;46;37;25
76330;PMS7003;65148;51.912;15.570;2023-02-23T11:47:32;40;33;22
76330;PMS7003;65148;51.912;15.570;2023-02-23T12:03:20;43;38;25
76330;PMS7003;65148;51.912;15.570;2023-02-23T12:17:56;59;48;30
76330;PMS7003;65148;51.912;15.570;2023-02-23T12:33:23;49;41;27
76330;PMS7003;65148;51.912;15.570;2023-02-23T13:34:58;45;35;23
76330;PMS7003;65148;51.912;15.570;2023-02-23T14:04:45;29;23;16
76330;PMS7003;65148;51.912;15.570;2023-02-23T14:35:01;28;23;16
76330;PMS7003;65148;51.912;15.570;2023-02-23T14:50:02;22;18;15
76330;PMS7003;65148;51.912;15.570;2023-02-23T15:20:37;32;28;20
76330;PMS7003;65148;51.912;15.570;2023-02-23T15:35:49;48;39;27
76330;PMS7003;65148;51.912;15.570;2023-02-23T15:50:55;52;41;28
76330;PMS7003;65148;51.912;15.570;2023-02-23T16:21:06;69;54;34
76330;PMS7003;65148;51.912;15.570;2023-02-23T16:36:34;56;44;30
76330;PMS7003;65148;51.912;15.570;2023-02-23T16:51:39;68;52;32
76330;PMS7003;65148;51.912;15.570;2023-02-23T17:06:41;58;42;27
76330;PMS7003;65148;51.912;15.570;2023-02-23T17:22:10;69;52;34
76330;PMS7003;65148;51.912;15.570;2023-02-23T17:37:12;63;49;32
76330;PMS7003;65148;51.912;15.570;2023-02-23T17:52:13;61;45;29
76330;PMS7003;65148;51.912;15.570;2023-02-23T18:07:14;57;47;29
76330;PMS7003;65148;51.912;15.570;2023-02-23T18:22:37;70;55;34
76330;PMS7003;65148;51.912;15.570;2023-02-23T18:37:38;69;53;33
76330;PMS7003;65148;51.912;15.570;2023-02-23T18:52:39;63;49;33
76330;PMS7003;65148;51.912;15.570;2023-02-23T19:07:41;56;47;28
76330;PMS7003;65148;51.912;15.570;2023-02-23T19:23:04;91;70;40
76330;PMS7003;65148;51.912;15.570;2023-02-23T19:38:05;74;58;36
76330;PMS7003;65148;51.912;15.570;2023-02-23T19:53:07;59;47;32
76330;PMS7003;65148;51.912;15.570;2023-02-23T20:08:08;55;44;29
76330;PMS7003;65148;51.912;15.570;2023-02-23T20:23:31;58;46;29
76330;PMS7003;65148;51.912;15.570;2023-02-23T20:38:32;65;52;32
76330;PMS7003;65148;51.912;15.570;2023-02-23T20:53:36;69;53;34
76330;PMS7003;65148;51.912;15.570;2023-02-23T21:08:37;68;54;33
76330;PMS7003;65148;51.912;15.570;2023-02-23T21:23:59;71;56;34
76330;PMS7003;65148;51.912;15.570;2023-02-23T21:39:00;80;59;34
76330;PMS7003;65148;51.912;15.570;2023-02-23T21:54:01;76;59;36
76330;PMS7003;65148;51.912;15.570;2023-02-23T22:09:04;78;57;36
76330;PMS7003;65148;51.912;15.570;2023-02-23T22:24:27;71;54;29
76330;PMS7003;65148;51.912;15.570;2023-02-23T22:39:28;62;49;29
76330;PMS7003;65148;51.912;15.570;2023-02-23T22:54:32;78;58;35
76330;PMS7003;65148;51.912;15.570;2023-02-23T23:09:34;72;55;30
76330;PMS7003;65148;51.912;15.570;2023-02-23T23:24:56;75;58;35
76330;PMS7003;65148;51.912;15.570;2023-02-23T23:39:56;71;54;33
76330;PMS7003;65148;51.912;15.570;2023-02-23T23:55:11;74;56;35
